首页
METAR-TAF:

METAR-TAF

机场 :

Winter Haven's Gilbert Airport

Winter Haven, 佛罗里达州, 美国

纬度: 28-03-38N, 经度: 081-45-27W, 海拔: 44米

当前天气观测

该预报发布于28分钟前的03:53 UTC
风速5节,风向西转西北
温度 22°C
湿度 83%
气压 1018 hPa
能見度: 16.1公里
少量云层高于3400英尺

METAR: KGIF 210353Z AUTO 29005KT 10SM FEW034 22/19 A3007 RMK AO2 SLP181 T02170189

时间: 23:21 (04:21 UTC)


TAF: 丢失

超过4000个机场的气象观测和天气预报(METAR&TAF报告)。

可查询的气象台以黄色和红色小点在地图上表示。

将鼠标移到小点上方,可查看气象台名称。

然后点击查看天气观测和预报。

如需切换地图:点击带黑十字的绿色按钮放大地图;点击带横线的绿色按钮缩小地图;或者点击绿色箭头查看邻近地区的地图。


METAR-TAF: